La plateforme de Tours Sorigny

[wp_mapbox_gl_js map_id= »822″]


Adresse :

Aérodrome de Tours-Sorigny

RD 910

37250 SORIGNY


Carte VAC :

https://www.sia.aviation-civile.gouv.fr/dvd/eAIP_19_JUL_2018/Atlas-VAC/PDF_AIPparSSection/VAC/AD/AD-2.LFEN.pdf

METAR / TAF:

LFOT 200130Z AUTO 06013KT CAVOK 12/02 Q1023 NOSIG

TAF LFOT 191700Z 1918/2018 06012KT CAVOK PROB40 TEMPO 1918/1919 06015G30KT